createdAt,value
2022-10-15T00:00:33.097Z,0.00
2022-10-15T00:01:35.691Z,0.00
2022-10-15T00:02:33.119Z,0.00
2022-10-15T00:03:33.255Z,0.00
2022-10-15T00:04:33.085Z,0.00
2022-10-15T00:05:33.116Z,0.00
2022-10-15T00:06:33.227Z,0.00
2022-10-15T00:07:33.081Z,0.00
2022-10-15T00:08:33.245Z,0.00
2022-10-15T00:09:33.033Z,0.00
2022-10-15T00:10:33.013Z,0.00
2022-10-15T00:11:33.016Z,0.00
2022-10-15T00:12:33.017Z,0.00
2022-10-15T00:13:33.004Z,0.00
2022-10-15T00:14:32.961Z,0.00
2022-10-15T00:15:33.026Z,0.00
2022-10-15T00:16:33.191Z,0.00
2022-10-15T00:17:33.004Z,0.00
2022-10-15T00:18:33.010Z,0.00
2022-10-15T00:19:34.390Z,0.00
2022-10-15T00:20:32.964Z,0.00
2022-10-15T00:21:33.447Z,0.00
2022-10-15T00:22:32.961Z,0.00
2022-10-15T00:23:32.955Z,0.00
2022-10-15T00:24:32.930Z,0.00
2022-10-15T00:25:32.936Z,0.00
2022-10-15T00:26:33.038Z,0.00
2022-10-15T00:27:32.886Z,0.00
2022-10-15T00:28:34.369Z,0.00
2022-10-15T00:29:32.926Z,0.00
2022-10-15T00:30:32.871Z,0.00
2022-10-15T00:31:33.903Z,0.00
2022-10-15T00:32:32.887Z,0.00
2022-10-15T00:33:32.916Z,0.00
2022-10-15T00:34:32.853Z,0.00
2022-10-15T00:35:32.848Z,0.00
2022-10-15T00:36:32.889Z,0.00
2022-10-15T00:37:32.842Z,0.00
2022-10-15T00:38:32.785Z,0.00
2022-10-15T00:39:33.000Z,0.00
2022-10-15T00:40:32.811Z,0.00
2022-10-15T00:41:32.866Z,0.00
2022-10-15T00:42:32.919Z,0.00
2022-10-15T00:43:32.784Z,0.00
2022-10-15T00:44:32.779Z,0.00
2022-10-15T00:45:32.768Z,0.00
2022-10-15T00:46:32.968Z,0.00
2022-10-15T00:47:32.738Z,0.00
2022-10-15T00:48:33.058Z,0.00
2022-10-15T00:49:32.790Z,0.00
2022-10-15T00:50:32.710Z,0.00
2022-10-15T00:51:32.750Z,0.00
2022-10-15T00:52:32.790Z,0.00
2022-10-15T00:53:32.726Z,0.00
2022-10-15T00:54:32.735Z,0.00
2022-10-15T00:55:32.893Z,0.00
2022-10-15T00:56:32.791Z,0.00
2022-10-15T00:57:32.677Z,0.00
2022-10-15T00:58:32.651Z,0.00
2022-10-15T00:59:32.671Z,0.00
2022-10-15T01:00:32.674Z,0.00
2022-10-15T01:01:32.712Z,0.00
2022-10-15T01:02:32.676Z,0.00
2022-10-15T01:03:32.628Z,0.00
2022-10-15T01:04:32.619Z,0.00
2022-10-15T01:05:32.790Z,0.00
2022-10-15T01:06:32.599Z,0.00
2022-10-15T01:07:32.605Z,0.00
2022-10-15T01:08:32.577Z,0.00
2022-10-15T01:09:32.626Z,0.00
2022-10-15T01:10:32.654Z,0.00
2022-10-15T01:11:32.611Z,0.00
2022-10-15T01:12:32.573Z,0.00
2022-10-15T01:13:32.615Z,0.00
2022-10-15T01:14:32.576Z,0.00
2022-10-15T01:15:32.538Z,0.00
2022-10-15T01:16:32.534Z,0.00
2022-10-15T01:17:32.547Z,0.00
2022-10-15T01:18:32.513Z,0.00
2022-10-15T01:19:32.518Z,0.00
2022-10-15T01:20:32.513Z,0.00
2022-10-15T01:21:32.527Z,0.00
2022-10-15T01:22:32.522Z,0.00
2022-10-15T01:23:32.495Z,0.00
2022-10-15T01:24:32.489Z,0.00
2022-10-15T01:25:32.500Z,0.00
2022-10-15T01:26:32.488Z,0.00
2022-10-15T01:27:32.495Z,0.00
2022-10-15T01:28:32.521Z,0.00
2022-10-15T01:29:32.440Z,0.00
2022-10-15T01:30:32.414Z,0.00
2022-10-15T01:31:32.437Z,0.00
2022-10-15T01:32:32.417Z,0.00
2022-10-15T01:33:32.451Z,0.00
2022-10-15T01:34:32.414Z,0.00
2022-10-15T01:35:32.414Z,0.00
2022-10-15T01:36:32.400Z,0.00
2022-10-15T01:37:32.598Z,0.00
2022-10-15T01:38:32.609Z,0.00
2022-10-15T01:39:32.389Z,0.00
2022-10-15T01:40:32.389Z,0.00
2022-10-15T01:41:32.397Z,0.00
2022-10-15T01:42:32.373Z,0.00
2022-10-15T01:43:32.411Z,0.00
2022-10-15T01:44:32.318Z,0.00
2022-10-15T01:45:32.330Z,0.00
2022-10-15T01:46:32.346Z,0.00
2022-10-15T01:47:32.339Z,0.00
2022-10-15T01:48:32.545Z,0.00
2022-10-15T01:49:32.285Z,0.00
2022-10-15T01:50:32.319Z,0.00
2022-10-15T01:51:32.324Z,0.00
2022-10-15T01:52:32.538Z,0.00
2022-10-15T01:53:32.286Z,0.00
2022-10-15T01:54:32.281Z,0.00
2022-10-15T01:55:32.280Z,0.00
2022-10-15T01:56:32.239Z,0.00
2022-10-15T01:57:32.252Z,0.00
2022-10-15T01:58:32.275Z,0.00
2022-10-15T01:59:32.470Z,0.00
2022-10-15T02:00:32.204Z,0.00
2022-10-15T02:01:32.643Z,0.00
2022-10-15T02:02:32.235Z,0.00
2022-10-15T02:03:32.430Z,0.00
2022-10-15T02:04:32.254Z,0.00
2022-10-15T02:05:32.195Z,0.00
2022-10-15T02:06:32.261Z,0.00
2022-10-15T02:07:32.205Z,0.00
2022-10-15T02:08:32.205Z,0.00
2022-10-15T02:09:32.198Z,0.00
2022-10-15T02:10:32.182Z,0.00
2022-10-15T02:11:32.219Z,0.00
2022-10-15T02:12:32.154Z,0.00
2022-10-15T02:13:32.183Z,0.00
2022-10-15T02:14:32.142Z,0.00
2022-10-15T02:15:32.163Z,0.00
2022-10-15T02:16:32.087Z,0.00
2022-10-15T02:17:32.110Z,0.00
2022-10-15T02:18:32.112Z,0.00
2022-10-15T02:19:32.131Z,0.00
2022-10-15T02:20:32.106Z,0.00
2022-10-15T02:21:32.271Z,0.00
2022-10-15T02:22:32.076Z,0.00
2022-10-15T02:23:32.116Z,0.00
2022-10-15T02:24:32.323Z,0.00
2022-10-15T02:25:32.209Z,0.00
2022-10-15T02:26:32.072Z,0.00
2022-10-15T02:27:32.069Z,0.00
2022-10-15T02:28:32.157Z,0.00
2022-10-15T02:29:32.094Z,0.00
2022-10-15T02:30:32.058Z,0.00
2022-10-15T02:31:32.022Z,0.00
2022-10-15T02:32:32.037Z,0.00
2022-10-15T02:33:31.997Z,0.00
2022-10-15T02:34:31.995Z,0.00
2022-10-15T02:35:31.973Z,0.00
2022-10-15T02:36:31.987Z,0.00
2022-10-15T02:37:32.410Z,0.00
2022-10-15T02:38:31.970Z,0.00
2022-10-15T02:39:31.944Z,0.00
2022-10-15T02:40:31.975Z,0.00
2022-10-15T02:41:32.109Z,0.00
2022-10-15T02:42:31.956Z,0.00
2022-10-15T02:43:31.932Z,0.00
2022-10-15T02:44:31.886Z,0.00
2022-10-15T02:45:31.923Z,0.00
2022-10-15T02:46:32.002Z,0.00
2022-10-15T02:47:31.890Z,0.00
2022-10-15T02:48:31.900Z,0.00
2022-10-15T02:49:31.883Z,0.00
2022-10-15T02:50:31.853Z,0.00
2022-10-15T02:51:31.831Z,0.00
2022-10-15T02:52:31.891Z,0.00
2022-10-15T02:53:31.861Z,0.00
2022-10-15T02:54:31.839Z,0.00
2022-10-15T02:55:31.900Z,0.00
2022-10-15T02:56:31.839Z,0.00
2022-10-15T02:57:31.934Z,0.00
2022-10-15T02:58:31.793Z,0.00
2022-10-15T02:59:31.860Z,0.00
2022-10-15T03:00:31.821Z,0.00
2022-10-15T03:01:31.873Z,0.00
2022-10-15T03:02:31.792Z,0.00
2022-10-15T03:03:31.785Z,0.00
2022-10-15T03:04:31.829Z,0.00
2022-10-15T03:05:31.788Z,0.00
2022-10-15T03:06:31.787Z,0.00
2022-10-15T03:07:31.760Z,0.00
2022-10-15T03:08:31.819Z,0.00
2022-10-15T03:09:31.711Z,0.00
2022-10-15T03:10:31.725Z,0.00
2022-10-15T03:11:31.746Z,0.00
2022-10-15T03:12:31.709Z,0.00
2022-10-15T03:13:31.728Z,0.00
2022-10-15T03:14:31.979Z,0.00
2022-10-15T03:15:31.865Z,0.00
2022-10-15T03:16:31.679Z,0.00
2022-10-15T03:17:31.692Z,0.00
2022-10-15T03:18:32.143Z,0.00
2022-10-15T03:19:31.835Z,0.00
2022-10-15T03:20:31.635Z,0.00
2022-10-15T03:21:31.626Z,0.00
2022-10-15T03:22:31.635Z,0.00
2022-10-15T03:24:31.610Z,0.00
2022-10-15T03:25:31.605Z,0.00
2022-10-15T03:26:31.599Z,0.00
2022-10-15T03:27:31.589Z,0.00
2022-10-15T03:28:31.674Z,0.00
2022-10-15T03:29:31.602Z,0.00
2022-10-15T03:30:31.567Z,0.00
2022-10-15T03:31:31.560Z,0.00
2022-10-15T03:32:33.133Z,0.00
2022-10-15T03:33:31.545Z,0.00
2022-10-15T03:34:31.530Z,0.00
2022-10-15T03:35:31.529Z,0.00
2022-10-15T03:36:31.546Z,0.00
2022-10-15T03:37:31.512Z,0.00
2022-10-15T03:38:31.495Z,0.00
2022-10-15T03:39:31.501Z,0.00
2022-10-15T03:40:31.687Z,0.00
2022-10-15T03:41:31.723Z,0.00
2022-10-15T03:42:31.481Z,0.00
2022-10-15T03:43:31.566Z,0.00
2022-10-15T03:44:31.476Z,0.00
2022-10-15T03:45:31.458Z,0.00
2022-10-15T03:46:31.448Z,0.00
2022-10-15T03:47:31.446Z,0.00
2022-10-15T03:48:31.441Z,0.00
2022-10-15T03:49:31.425Z,0.00
2022-10-15T03:50:31.517Z,0.00
2022-10-15T03:51:31.828Z,0.00
2022-10-15T03:52:31.401Z,0.00
2022-10-15T03:53:31.391Z,0.00
2022-10-15T03:54:31.381Z,0.00
2022-10-15T03:55:31.378Z,0.00
2022-10-15T03:56:31.368Z,0.00
2022-10-15T03:57:31.370Z,0.00
2022-10-15T03:58:31.393Z,0.00
2022-10-15T03:59:31.441Z,0.00
2022-10-15T04:00:31.353Z,0.00
2022-10-15T04:01:31.404Z,0.00
2022-10-15T04:02:31.548Z,0.00
2022-10-15T04:03:31.347Z,0.00
2022-10-15T04:04:31.517Z,0.00
2022-10-15T04:05:31.315Z,0.00
2022-10-15T04:06:31.305Z,0.00
2022-10-15T04:07:31.345Z,0.00
2022-10-15T04:08:31.521Z,0.00
2022-10-15T04:09:31.304Z,0.00
2022-10-15T04:10:31.297Z,0.00
2022-10-15T04:11:31.291Z,0.00
2022-10-15T04:12:31.325Z,0.00
2022-10-15T04:13:31.265Z,0.00
2022-10-15T04:14:31.254Z,0.00
2022-10-15T04:15:31.239Z,0.00
2022-10-15T04:16:31.265Z,0.00
2022-10-15T04:17:31.233Z,0.00
2022-10-15T04:18:31.442Z,0.00
2022-10-15T04:19:31.402Z,0.00
2022-10-15T04:20:31.218Z,0.00
2022-10-15T04:21:31.215Z,0.00
2022-10-15T04:22:31.291Z,0.00
2022-10-15T04:23:31.188Z,0.00
2022-10-15T04:24:31.174Z,0.00
2022-10-15T04:25:31.149Z,0.00
2022-10-15T04:26:31.164Z,0.00
2022-10-15T04:27:31.166Z,0.00
2022-10-15T04:28:31.257Z,0.00
2022-10-15T04:29:31.134Z,0.00
2022-10-15T04:30:31.130Z,0.00
2022-10-15T04:31:31.113Z,0.00
2022-10-15T04:32:31.112Z,0.00
2022-10-15T04:33:31.128Z,0.00
2022-10-15T04:34:31.094Z,0.00
2022-10-15T04:35:31.088Z,0.00
2022-10-15T04:36:31.089Z,0.00
2022-10-15T04:37:31.069Z,0.00
2022-10-15T04:38:31.070Z,0.00
2022-10-15T04:39:31.084Z,0.00
2022-10-15T04:40:31.056Z,0.00
2022-10-15T04:41:31.054Z,0.00
2022-10-15T04:42:31.060Z,0.00
2022-10-15T04:43:31.036Z,0.00
2022-10-15T04:44:31.022Z,0.00
2022-10-15T04:45:31.023Z,0.00
2022-10-15T04:46:31.219Z,0.00
2022-10-15T04:47:31.000Z,0.00
2022-10-15T04:48:30.990Z,0.00
2022-10-15T04:49:31.009Z,0.00
2022-10-15T04:50:30.981Z,0.00
2022-10-15T04:51:30.974Z,0.00
2022-10-15T04:52:30.969Z,0.00
2022-10-15T04:53:30.949Z,0.00
2022-10-15T04:54:30.952Z,0.00
2022-10-15T04:55:31.103Z,0.00
2022-10-15T04:56:30.941Z,0.00
2022-10-15T04:57:30.925Z,0.00
2022-10-15T04:58:30.913Z,0.00
2022-10-15T04:59:30.909Z,0.00
2022-10-15T05:00:31.050Z,0.00
2022-10-15T05:01:30.900Z,0.00
2022-10-15T05:02:30.970Z,0.00
2022-10-15T05:03:30.912Z,0.00
2022-10-15T05:04:30.881Z,0.00
2022-10-15T05:05:31.033Z,0.00
2022-10-15T05:06:31.062Z,0.00
2022-10-15T05:07:30.854Z,0.00
2022-10-15T05:08:30.841Z,0.00
2022-10-15T05:09:30.849Z,0.00
2022-10-15T05:10:31.206Z,0.00
2022-10-15T05:11:30.849Z,0.00
2022-10-15T05:12:30.849Z,4.00
2022-10-15T05:13:31.004Z,0.00
2022-10-15T05:14:30.807Z,0.00
2022-10-15T05:15:30.962Z,4.00
2022-10-15T05:16:30.791Z,0.00
2022-10-15T05:17:30.767Z,4.00
2022-10-15T05:18:30.783Z,8.00
2022-10-15T05:19:30.776Z,4.00
2022-10-15T05:20:30.932Z,8.00
2022-10-15T05:21:30.771Z,8.00
2022-10-15T05:22:30.740Z,8.00
2022-10-15T05:23:30.735Z,8.00
2022-10-15T05:24:30.735Z,8.00
2022-10-15T05:25:30.903Z,12.00
2022-10-15T05:26:30.707Z,12.00
2022-10-15T05:27:30.796Z,16.00
2022-10-15T05:28:30.730Z,16.00
2022-10-15T05:29:30.685Z,20.00
2022-10-15T05:30:30.826Z,24.00
2022-10-15T05:31:30.662Z,28.00
2022-10-15T05:32:30.681Z,32.00
2022-10-15T05:33:30.647Z,36.00
2022-10-15T05:34:30.744Z,36.00
2022-10-15T05:35:30.802Z,40.00
2022-10-15T05:36:30.628Z,44.00
2022-10-15T05:37:30.860Z,48.00
2022-10-15T05:38:30.617Z,52.00
2022-10-15T05:39:30.614Z,56.00
2022-10-15T05:40:30.946Z,60.00
2022-10-15T05:41:30.603Z,68.00
2022-10-15T05:42:30.616Z,76.00
2022-10-15T05:43:30.575Z,88.00
2022-10-15T05:44:30.566Z,96.00
2022-10-15T05:45:30.702Z,96.00
2022-10-15T05:46:30.569Z,100.00
2022-10-15T05:47:30.548Z,100.00
2022-10-15T05:48:30.544Z,108.00
2022-10-15T05:49:30.558Z,116.00
2022-10-15T05:50:30.673Z,124.00
2022-10-15T05:51:30.534Z,136.00
2022-10-15T05:52:30.513Z,140.00
2022-10-15T05:53:30.524Z,144.00
2022-10-15T05:54:30.484Z,144.00
2022-10-15T05:55:30.770Z,148.00
2022-10-15T05:56:30.494Z,156.00
2022-10-15T05:57:30.461Z,172.00
2022-10-15T05:58:33.377Z,196.00
2022-10-15T05:59:30.456Z,212.00
2022-10-15T06:00:30.592Z,228.00
2022-10-15T06:01:30.441Z,256.00
2022-10-15T06:02:30.663Z,296.00
2022-10-15T06:03:30.434Z,356.00
2022-10-15T06:04:33.245Z,440.00
2022-10-15T06:05:30.558Z,524.00
2022-10-15T06:06:30.401Z,572.00
2022-10-15T06:07:30.394Z,572.00
2022-10-15T06:08:30.431Z,544.00
2022-10-15T06:09:30.407Z,516.00
2022-10-15T06:10:30.514Z,496.00
2022-10-15T06:11:30.394Z,492.00
2022-10-15T06:12:30.356Z,524.00
2022-10-15T06:13:30.345Z,672.00
2022-10-15T06:14:30.348Z,836.00
2022-10-15T06:15:30.481Z,1048.00
2022-10-15T06:16:30.324Z,1120.00
2022-10-15T06:17:30.340Z,992.00
2022-10-15T06:18:30.316Z,912.00
2022-10-15T06:19:30.532Z,916.00
2022-10-15T06:20:30.464Z,924.00
2022-10-15T06:21:30.287Z,976.00
2022-10-15T06:22:30.347Z,1144.00
2022-10-15T06:23:30.297Z,1548.00
2022-10-15T06:24:30.270Z,2040.00
2022-10-15T06:25:30.441Z,2628.00
2022-10-15T06:26:30.454Z,2320.00
2022-10-15T06:27:30.243Z,2668.00
2022-10-15T06:28:30.289Z,3588.00
2022-10-15T06:29:30.238Z,1040.00
2022-10-15T06:30:30.385Z,724.00
2022-10-15T06:31:30.221Z,612.00
2022-10-15T06:32:30.253Z,552.00
2022-10-15T06:33:30.203Z,512.00
2022-10-15T06:34:30.212Z,488.00
2022-10-15T06:35:30.366Z,456.00
2022-10-15T06:36:30.178Z,420.00
2022-10-15T06:37:30.174Z,380.00
2022-10-15T06:38:30.162Z,344.00
2022-10-15T06:39:30.157Z,324.00
2022-10-15T06:40:30.354Z,324.00
2022-10-15T06:41:30.156Z,328.00
2022-10-15T06:42:30.141Z,320.00
2022-10-15T06:43:32.517Z,288.00
2022-10-15T06:44:30.164Z,240.00
2022-10-15T06:45:30.140Z,208.00
2022-10-15T06:46:30.135Z,192.00
2022-10-15T06:47:30.304Z,192.00
2022-10-15T06:48:30.237Z,212.00
2022-10-15T06:49:30.095Z,252.00
2022-10-15T06:50:30.252Z,276.00
2022-10-15T06:51:30.106Z,288.00
2022-10-15T06:52:30.062Z,296.00
2022-10-15T06:53:30.060Z,316.00
2022-10-15T06:54:30.058Z,352.00
2022-10-15T06:55:30.199Z,396.00
2022-10-15T06:56:30.079Z,456.00
2022-10-15T06:57:30.088Z,520.00
2022-10-15T06:58:30.058Z,600.00
2022-10-15T06:59:30.233Z,688.00
2022-10-15T07:00:30.206Z,776.00
2022-10-15T07:01:30.026Z,860.00
2022-10-15T07:02:30.032Z,920.00
2022-10-15T07:03:30.057Z,976.00
2022-10-15T07:04:30.036Z,1052.00
2022-10-15T07:05:30.142Z,1188.00
2022-10-15T07:06:30.026Z,1448.00
2022-10-15T07:07:29.983Z,1800.00
2022-10-15T07:08:29.998Z,2156.00
2022-10-15T07:09:30.039Z,2376.00
2022-10-15T07:10:30.204Z,2396.00
2022-10-15T07:11:29.960Z,2116.00
2022-10-15T07:12:29.990Z,1840.00
2022-10-15T07:13:29.959Z,1804.00
2022-10-15T07:14:29.915Z,1956.00
2022-10-15T07:15:30.074Z,2196.00
2022-10-15T07:16:29.899Z,2708.00
2022-10-15T07:17:29.896Z,3492.00
2022-10-15T07:18:29.911Z,4124.00
2022-10-15T07:19:29.872Z,4112.00
2022-10-15T07:20:30.054Z,4396.00
2022-10-15T07:21:29.878Z,2572.00
2022-10-15T07:22:30.057Z,2600.00
2022-10-15T07:23:29.925Z,2152.00
2022-10-15T07:24:29.858Z,1856.00
2022-10-15T07:25:29.986Z,1748.00
2022-10-15T07:26:29.858Z,1584.00
2022-10-15T07:27:29.859Z,1448.00
2022-10-15T07:28:29.919Z,1328.00
2022-10-15T07:29:29.872Z,1184.00
2022-10-15T07:30:29.987Z,1068.00
2022-10-15T07:31:30.137Z,980.00
2022-10-15T07:32:30.016Z,940.00
2022-10-15T07:33:29.970Z,924.00
2022-10-15T07:34:29.791Z,912.00
2022-10-15T07:35:29.916Z,936.00
2022-10-15T07:36:29.782Z,984.00
2022-10-15T07:37:29.758Z,1044.00
2022-10-15T07:38:29.748Z,1096.00
2022-10-15T07:39:30.045Z,1144.00
2022-10-15T07:40:30.292Z,1212.00
2022-10-15T07:41:30.134Z,1288.00
2022-10-15T07:42:29.922Z,1308.00
2022-10-15T07:43:29.715Z,1220.00
2022-10-15T07:44:29.728Z,1016.00
2022-10-15T07:46:29.729Z,800.00
2022-10-15T07:47:29.912Z,808.00
2022-10-15T07:48:29.937Z,840.00
2022-10-15T07:49:29.679Z,908.00
2022-10-15T07:50:32.375Z,952.00
2022-10-15T07:51:29.659Z,992.00
2022-10-15T07:52:29.874Z,1040.00
2022-10-15T07:53:29.648Z,1156.00
2022-10-15T07:54:29.664Z,1320.00
2022-10-15T07:55:29.774Z,1488.00
2022-10-15T07:56:29.646Z,1660.00
2022-10-15T07:57:29.630Z,1940.00
2022-10-15T07:58:29.657Z,2072.00
2022-10-15T07:59:29.611Z,2012.00
2022-10-15T08:00:30.037Z,2036.00
2022-10-15T08:01:29.598Z,2248.00
2022-10-15T08:02:29.671Z,2728.00
2022-10-15T08:03:29.595Z,3520.00
2022-10-15T08:04:29.571Z,3812.00
2022-10-15T08:05:29.718Z,4788.00
2022-10-15T08:06:29.571Z,6720.00
2022-10-15T08:07:29.677Z,6928.00
2022-10-15T08:08:29.576Z,7408.00
2022-10-15T08:09:29.549Z,9252.00
2022-10-15T08:10:29.654Z,5712.00
2022-10-15T08:11:29.528Z,5112.00
2022-10-15T08:12:29.547Z,3896.00
2022-10-15T08:13:29.516Z,4188.00
2022-10-15T08:14:29.533Z,4136.00
2022-10-15T08:15:29.670Z,3268.00
2022-10-15T08:16:29.513Z,2464.00
2022-10-15T08:17:29.499Z,2164.00
2022-10-15T08:18:29.519Z,2124.00
2022-10-15T08:19:29.498Z,2240.00
2022-10-15T08:20:29.655Z,2288.00
2022-10-15T08:21:29.488Z,2464.00
2022-10-15T08:22:29.468Z,2632.00
2022-10-15T08:23:29.483Z,2720.00
2022-10-15T08:24:29.466Z,2896.00
2022-10-15T08:25:29.612Z,2800.00
2022-10-15T08:26:29.451Z,2804.00
2022-10-15T08:27:29.438Z,2780.00
2022-10-15T08:28:29.557Z,2660.00
2022-10-15T08:29:29.431Z,2732.00
2022-10-15T08:30:29.580Z,2776.00
2022-10-15T08:31:29.400Z,2632.00
2022-10-15T08:32:29.406Z,2328.00
2022-10-15T08:33:29.400Z,1932.00
2022-10-15T08:34:29.420Z,1840.00
2022-10-15T08:35:29.549Z,1964.00
2022-10-15T08:36:29.389Z,2024.00
2022-10-15T08:37:29.378Z,1980.00
2022-10-15T08:38:29.369Z,1952.00
2022-10-15T08:39:29.368Z,2012.00
2022-10-15T08:40:29.498Z,2024.00
2022-10-15T08:41:29.371Z,2052.00
2022-10-15T08:42:29.336Z,2040.00
2022-10-15T08:43:29.529Z,2016.00
2022-10-15T08:44:29.323Z,1992.00
2022-10-15T08:45:29.502Z,1972.00
2022-10-15T08:46:29.369Z,1908.00
2022-10-15T08:47:29.304Z,1832.00
2022-10-15T08:48:29.300Z,1716.00
2022-10-15T08:49:29.294Z,1696.00
2022-10-15T08:50:29.483Z,1844.00
2022-10-15T08:51:29.281Z,2216.00
2022-10-15T08:52:29.491Z,2880.00
2022-10-15T08:53:29.274Z,3816.00
2022-10-15T08:54:29.262Z,4352.00
2022-10-15T08:55:29.431Z,5516.00
2022-10-15T08:56:29.245Z,6136.00
2022-10-15T08:57:29.269Z,5184.00
2022-10-15T08:58:29.264Z,4468.00
2022-10-15T08:59:29.223Z,3456.00
2022-10-15T09:00:29.310Z,2912.00
2022-10-15T09:01:29.434Z,2624.00
2022-10-15T09:02:29.214Z,2184.00
2022-10-15T09:03:29.214Z,2052.00
2022-10-15T09:04:29.407Z,2136.00
2022-10-15T09:05:29.364Z,2400.00
2022-10-15T09:06:29.204Z,2680.00
2022-10-15T09:07:29.183Z,3048.00
2022-10-15T09:08:29.198Z,4508.00
2022-10-15T09:09:29.367Z,6252.00
2022-10-15T09:10:29.310Z,6464.00
2022-10-15T09:11:29.181Z,8008.00
2022-10-15T09:12:29.189Z,8860.00
2022-10-15T09:13:29.185Z,8844.00
2022-10-15T09:14:29.147Z,8464.00
2022-10-15T09:15:29.133Z,8356.00
2022-10-15T09:16:29.123Z,8344.00
2022-10-15T09:17:29.143Z,8712.00
2022-10-15T09:18:29.129Z,8952.00
2022-10-15T09:19:29.124Z,9216.00
2022-10-15T09:20:29.107Z,9048.00
2022-10-15T09:21:29.106Z,9520.00
2022-10-15T09:22:29.135Z,11272.00
2022-10-15T09:23:29.103Z,9508.00
2022-10-15T09:24:29.083Z,9508.00
2022-10-15T09:25:31.931Z,9536.00
2022-10-15T09:27:29.081Z,10604.00
2022-10-15T09:28:29.142Z,9608.00
2022-10-15T09:29:29.090Z,8704.00
2022-10-15T09:30:29.224Z,6620.00
2022-10-15T09:31:29.059Z,4800.00
2022-10-15T09:32:29.077Z,3532.00
2022-10-15T09:33:29.048Z,3620.00
2022-10-15T09:34:29.097Z,5032.00
2022-10-15T09:35:29.192Z,9204.00
2022-10-15T09:36:29.117Z,9716.00
2022-10-15T09:37:29.031Z,8864.00
2022-10-15T09:38:29.063Z,7392.00
2022-10-15T09:39:29.035Z,6696.00
2022-10-15T09:40:29.217Z,6812.00
2022-10-15T09:41:29.023Z,6588.00
2022-10-15T09:42:29.228Z,7632.00
2022-10-15T09:43:29.051Z,7976.00
2022-10-15T09:44:29.022Z,7512.00
2022-10-15T09:45:29.011Z,8684.00
2022-10-15T09:46:29.242Z,8904.00
2022-10-15T09:47:29.015Z,7352.00
2022-10-15T09:48:28.997Z,6848.00
2022-10-15T09:49:33.831Z,7864.00
2022-10-15T09:50:28.989Z,8680.00
2022-10-15T09:51:28.977Z,6376.00
2022-10-15T09:52:28.978Z,5188.00
2022-10-15T09:53:28.985Z,4648.00
2022-10-15T09:54:28.990Z,4316.00
2022-10-15T09:55:28.983Z,4200.00
2022-10-15T09:56:28.965Z,3640.00
2022-10-15T09:57:28.950Z,3276.00
2022-10-15T09:58:28.952Z,3080.00
2022-10-15T09:59:29.036Z,3124.00
2022-10-15T10:00:29.108Z,3788.00
2022-10-15T10:01:28.947Z,3176.00
2022-10-15T10:02:29.679Z,2232.00
2022-10-15T10:03:28.946Z,1904.00
2022-10-15T10:04:28.928Z,2012.00
2022-10-15T10:05:29.090Z,2124.00
2022-10-15T10:06:29.123Z,3608.00
2022-10-15T10:07:28.937Z,4380.00
2022-10-15T10:08:28.927Z,4900.00
2022-10-15T10:09:29.015Z,4600.00
2022-10-15T10:10:29.080Z,3760.00
2022-10-15T10:11:28.888Z,3568.00
2022-10-15T10:12:28.934Z,3436.00
2022-10-15T10:13:28.972Z,3300.00
2022-10-15T10:14:28.885Z,4048.00
2022-10-15T10:15:28.896Z,4120.00
2022-10-15T10:16:28.926Z,4064.00
2022-10-15T10:17:28.886Z,4068.00
2022-10-15T10:18:28.885Z,4300.00
2022-10-15T10:19:28.884Z,4020.00
2022-10-15T10:20:28.858Z,3648.00
2022-10-15T10:21:28.911Z,3628.00
2022-10-15T10:22:28.915Z,3164.00
2022-10-15T10:23:28.876Z,2932.00
2022-10-15T10:24:28.871Z,2760.00
2022-10-15T10:25:28.830Z,2908.00
2022-10-15T10:26:28.981Z,3320.00
2022-10-15T10:27:29.175Z,3216.00
2022-10-15T10:28:28.886Z,3224.00
2022-10-15T10:29:34.226Z,3632.00
2022-10-15T10:30:28.806Z,3452.00
2022-10-15T10:31:28.849Z,2868.00
2022-10-15T10:32:28.810Z,2796.00
2022-10-15T10:33:28.840Z,2728.00
2022-10-15T10:34:28.807Z,2684.00
2022-10-15T10:35:28.917Z,2448.00
2022-10-15T10:36:28.779Z,2116.00
2022-10-15T10:37:28.751Z,2044.00
2022-10-15T10:38:28.775Z,2416.00
2022-10-15T10:39:28.756Z,2924.00
2022-10-15T10:40:28.996Z,2888.00
2022-10-15T10:41:28.758Z,3168.00
2022-10-15T10:42:28.816Z,4964.00
2022-10-15T10:43:28.734Z,3524.00
2022-10-15T10:44:28.739Z,4352.00
2022-10-15T10:45:28.799Z,3848.00
2022-10-15T10:46:28.730Z,3520.00
2022-10-15T10:47:28.760Z,3112.00
2022-10-15T10:48:28.704Z,2844.00
2022-10-15T10:49:28.750Z,2664.00
2022-10-15T10:50:28.871Z,2408.00
2022-10-15T10:51:28.753Z,2364.00
2022-10-15T10:52:28.678Z,2708.00
2022-10-15T10:53:28.713Z,3032.00
2022-10-15T10:54:28.764Z,3532.00
2022-10-15T10:55:28.843Z,3716.00
2022-10-15T10:56:28.687Z,3308.00
2022-10-15T10:57:28.709Z,2924.00
2022-10-15T10:58:28.698Z,2788.00
2022-10-15T10:59:28.660Z,2840.00
2022-10-15T11:00:28.667Z,2852.00
2022-10-15T11:01:28.709Z,2968.00
2022-10-15T11:02:28.681Z,2980.00
2022-10-15T11:03:28.645Z,3084.00
2022-10-15T11:04:28.642Z,3224.00
2022-10-15T11:05:28.793Z,3348.00
2022-10-15T11:06:28.640Z,3392.00
2022-10-15T11:07:28.669Z,3644.00
2022-10-15T11:08:28.625Z,3724.00
2022-10-15T11:09:28.607Z,3724.00
2022-10-15T11:10:28.770Z,5264.00
2022-10-15T11:11:28.648Z,3412.00
2022-10-15T11:12:28.613Z,3488.00
2022-10-15T11:13:31.180Z,3408.00
2022-10-15T11:14:28.614Z,3216.00
2022-10-15T11:15:28.735Z,2948.00
2022-10-15T11:16:28.620Z,3004.00
2022-10-15T11:17:28.614Z,3772.00
2022-10-15T11:18:28.597Z,3428.00
2022-10-15T11:19:59.587Z,3532.00
2022-10-15T11:20:41.210Z,3652.00
2022-10-15T11:21:28.569Z,3516.00
2022-10-15T11:22:28.797Z,3116.00
2022-10-15T11:23:28.777Z,3088.00
2022-10-15T11:24:33.525Z,2968.00
2022-10-15T11:25:28.542Z,3900.00
2022-10-15T11:26:29.739Z,3904.00
2022-10-15T11:27:28.869Z,3800.00
2022-10-15T11:28:28.634Z,3416.00
2022-10-15T11:29:28.538Z,3536.00
2022-10-15T11:30:28.729Z,3248.00
2022-10-15T11:31:28.676Z,3040.00
2022-10-15T11:32:42.079Z,3156.00
2022-10-15T11:33:28.530Z,3204.00
2022-10-15T11:34:28.505Z,3072.00
2022-10-15T11:35:48.236Z,3172.00
2022-10-15T11:36:28.500Z,3216.00
2022-10-15T11:37:28.698Z,3188.00
2022-10-15T11:38:28.698Z,3160.00
2022-10-15T11:39:28.697Z,3312.00
2022-10-15T11:40:28.704Z,3288.00
2022-10-15T11:41:28.682Z,3420.00
2022-10-15T11:42:28.457Z,3548.00
2022-10-15T11:43:28.464Z,3524.00
2022-10-15T11:44:28.443Z,3340.00
2022-10-15T11:45:28.587Z,3216.00
2022-10-15T11:46:28.469Z,3312.00
2022-10-15T11:47:28.637Z,3072.00
2022-10-15T11:48:28.442Z,2864.00
2022-10-15T11:49:28.500Z,2924.00
2022-10-15T11:50:28.532Z,3228.00
2022-10-15T11:51:28.425Z,3248.00
2022-10-15T11:52:28.446Z,3400.00
2022-10-15T11:53:28.602Z,3356.00
2022-10-15T11:54:28.412Z,3096.00
2022-10-15T11:55:28.434Z,3016.00
2022-10-15T11:56:28.418Z,3116.00
2022-10-15T11:57:28.420Z,3736.00
2022-10-15T11:58:28.641Z,5172.00
2022-10-15T11:59:28.444Z,5676.00
2022-10-15T12:00:28.371Z,5768.00
2022-10-15T12:01:28.415Z,5624.00
2022-10-15T12:02:28.414Z,5348.00
2022-10-15T12:03:28.571Z,5060.00
2022-10-15T12:04:31.743Z,4848.00
2022-10-15T12:05:28.533Z,4776.00
2022-10-15T12:06:28.364Z,3608.00
2022-10-15T12:07:28.373Z,3308.00
2022-10-15T12:08:28.390Z,3120.00
2022-10-15T12:09:28.358Z,3452.00
2022-10-15T12:10:28.509Z,5112.00
2022-10-15T12:11:28.424Z,5080.00
2022-10-15T12:12:28.549Z,4384.00
2022-10-15T12:13:28.357Z,4600.00
2022-10-15T12:14:28.367Z,4584.00
2022-10-15T12:15:28.419Z,5128.00
2022-10-15T12:16:28.314Z,3944.00
2022-10-15T12:17:28.333Z,3456.00
2022-10-15T12:18:28.350Z,3388.00
2022-10-15T12:19:28.325Z,3240.00
2022-10-15T12:20:28.288Z,3400.00
2022-10-15T12:21:28.324Z,3520.00
2022-10-15T12:22:32.863Z,5156.00
2022-10-15T12:23:28.301Z,5316.00
2022-10-15T12:24:28.294Z,5172.00
2022-10-15T12:25:28.314Z,4604.00
2022-10-15T12:26:28.283Z,3248.00
2022-10-15T12:27:28.417Z,3040.00
2022-10-15T12:28:28.347Z,3348.00
2022-10-15T12:29:28.539Z,4668.00
2022-10-15T12:30:28.424Z,3980.00
2022-10-15T12:31:28.319Z,3072.00
2022-10-15T12:32:28.276Z,4120.00
2022-10-15T12:33:28.250Z,3972.00
2022-10-15T12:34:28.256Z,3120.00
2022-10-15T12:35:28.365Z,3600.00
2022-10-15T12:36:28.329Z,3340.00
2022-10-15T12:37:28.221Z,3232.00
2022-10-15T12:38:28.216Z,3364.00
2022-10-15T12:39:53.970Z,3740.00
2022-10-15T12:40:28.387Z,2896.00
2022-10-15T12:41:28.233Z,2700.00